.
WxDataArchive / Data Records for 2006-12-31
2006-12-30 December 2006 2007-01-01

Data Records for Sunday, 31 December 2006

Time	Temp	Chill	HIndex	Humid	Dewpt	 Wind 	HiWind	WindDir	Rain 	Barom 
-----	----	-----	------	-----	-----	------	------	-------	-----	----- 
00:00	39.3	39.3	39.3	91	36.9	2	6	90	0.00	30.302 
00:05	39.1	39.1	39.1	91	36.7	2	6	90	0.00	30.302 
00:10	38.9	38.9	38.9	91	36.5	2	7	90	0.00	30.302 
00:15	38.8	38.8	38.8	91	36.4	2	6	112	0.00	30.311 
00:20	38.6	38.6	38.6	92	36.5	3	7	112	0.00	30.311 
00:25	38.5	35.6	38.5	92	36.4	4	7	112	0.00	30.311 
00:30	38.3	38.3	38.3	92	36.2	3	6	112	0.00	30.308 
00:35	38.3	38.3	38.3	92	36.2	3	6	112	0.00	30.308 
00:40	38.2	38.2	38.2	92	36.1	3	6	112	0.00	30.308 
00:45	38.2	35.2	38.2	92	36.1	4	9	112	0.00	30.295 
00:50	38.0	35.0	38.0	92	35.9	4	8	90	0.00	30.295 
00:55	38.0	35.0	38.0	93	36.2	4	9	112	0.00	30.295 
01:00	37.9	37.9	37.9	93	36.1	3	6	112	0.00	30.281 
01:05	37.9	34.9	37.9	93	36.1	4	9	112	0.00	30.281 
01:10	37.8	33.9	37.8	93	36.0	5	11	112	0.00	30.281 
01:15	37.8	37.8	37.8	93	36.0	3	10	90	0.00	30.261 
01:20	37.6	33.7	37.6	93	35.8	5	13	112	0.00	30.261 
01:25	37.6	33.7	37.6	93	35.8	5	10	112	0.00	30.261 
01:30	37.6	33.7	37.6	93	35.8	5	11	112	0.00	30.262 
01:35	37.6	33.7	37.6	93	35.8	5	10	112	0.00	30.262 
01:40	37.6	34.5	37.6	94	36.0	4	10	112	0.00	30.262 
01:45	37.6	37.6	37.6	94	36.0	3	7	112	0.00	30.267 
01:50	37.6	34.5	37.6	94	36.0	4	10	112	0.00	30.267 
01:55	37.6	33.7	37.6	94	36.0	5	12	90	0.00	30.267 
02:00	37.6	34.5	37.6	94	36.0	4	9	90	0.00	30.260 
02:05	37.6	34.5	37.6	94	36.0	4	9	90	0.00	30.260 
02:10	37.6	33.7	37.6	94	36.0	5	11	112	0.00	30.260 
02:15	37.8	33.9	37.8	94	36.2	5	10	112	0.00	30.246 
02:20	37.8	34.8	37.8	94	36.2	4	7	112	0.00	30.246 
02:25	37.8	34.8	37.8	94	36.2	4	11	90	0.00	30.246 
02:30	37.8	33.9	37.8	94	36.2	5	13	112	0.00	30.245 
02:35	37.8	33.1	37.8	95	36.5	6	11	112	0.00	30.245 
02:40	37.8	33.9	37.8	95	36.5	5	10	112	0.00	30.245 
02:45	37.8	32.5	37.8	95	36.5	7	14	112	0.00	30.224 
02:50	37.8	33.1	37.8	95	36.5	6	17	112	0.00	30.224 
02:55	37.8	33.9	37.8	96	36.8	5	10	90	0.00	30.224 
03:00	37.9	34.0	37.9	96	36.9	5	12	90	0.00	30.223 
03:05	37.9	33.3	37.9	96	36.9	6	10	112	0.00	30.223 
03:10	37.9	34.0	37.9	96	36.9	5	11	90	0.00	30.223 
03:15	37.9	32.6	37.9	96	36.9	7	14	112	0.00	30.215 
03:20	38.0	34.1	38.0	96	37.0	5	11	90	0.00	30.215 
03:25	38.0	34.1	38.0	96	37.0	5	11	90	0.00	30.215 
03:30	38.0	34.1	38.0	96	37.0	5	11	112	0.00	30.214 
03:35	38.0	33.4	38.0	96	37.0	6	13	90	0.00	30.214 
03:40	38.2	34.4	38.2	96	37.2	5	10	112	0.00	30.214 
03:45	38.2	33.0	38.2	96	37.2	7	16	112	0.00	30.209 
03:50	38.2	33.0	38.2	96	37.2	7	14	112	0.00	30.209 
03:55	38.2	33.6	38.2	96	37.2	6	12	112	0.00	30.209 
04:00	38.3	33.7	38.3	95	37.0	6	10	90	0.00	30.199 
04:05	38.3	34.5	38.3	95	37.0	5	10	90	0.00	30.199 
04:10	38.3	34.5	38.3	95	37.0	5	9	112	0.00	30.199 
04:15	38.3	34.5	38.3	95	37.0	5	12	112	0.00	30.203 
04:20	38.3	35.4	38.3	95	37.0	4	10	90	0.00	30.203 
04:25	38.3	34.5	38.3	95	37.0	5	10	90	0.00	30.203 
04:30	38.5	34.7	38.5	95	37.2	5	13	112	0.00	30.189 
04:35	38.5	34.7	38.5	95	37.2	5	10	90	0.00	30.189 
04:40	38.5	35.6	38.5	95	37.2	4	9	112	0.00	30.189 
04:45	38.5	34.0	38.5	95	37.2	6	12	112	0.00	30.172 
04:50	38.5	34.7	38.5	95	37.2	5	12	90	0.00	30.172 
04:55	38.5	34.7	38.5	95	37.2	5	12	112	0.00	30.172 
05:00	38.5	34.0	38.5	95	37.2	6	14	90	0.00	30.153 
05:05	38.6	34.1	38.6	95	37.3	6	11	90	0.00	30.153 
05:10	38.6	34.8	38.6	95	37.3	5	11	90	0.00	30.153 
05:15	38.8	34.3	38.8	95	37.5	6	13	112	0.00	30.158 
05:20	38.8	35.1	38.8	95	37.5	5	12	90	0.00	30.158 
05:25	38.8	35.1	38.8	95	37.5	5	10	112	0.00	30.158 
05:30	38.8	35.1	38.8	95	37.5	5	12	90	0.00	30.155 
05:35	38.9	35.2	38.9	95	37.6	5	9	90	0.00	30.155 
05:40	38.9	35.2	38.9	95	37.6	5	11	112	0.00	30.155 
05:45	39.1	35.4	39.1	95	37.8	5	10	112	0.00	30.148 
05:50	39.1	35.4	39.1	94	37.5	5	10	90	0.00	30.148 
05:55	39.2	36.4	39.2	94	37.6	4	13	90	0.00	30.148 
06:00	39.2	36.4	39.2	94	37.6	4	11	112	0.00	30.138 
06:05	39.2	36.4	39.2	94	37.6	4	10	112	0.00	30.138 
06:10	39.3	36.5	39.3	94	37.7	4	11	112	0.00	30.138 
06:15	39.5	35.9	39.5	94	37.9	5	10	90	0.01	30.121 
06:20	39.5	35.2	39.5	94	37.9	6	12	112	0.00	30.121 
06:25	39.5	35.2	39.5	94	37.9	6	13	90	0.00	30.121 
06:30	39.5	35.9	39.5	94	37.9	5	8	112	0.00	30.120 
06:35	39.3	34.9	39.3	94	37.7	6	13	112	0.00	30.120 
06:40	39.5	35.9	39.5	94	37.9	5	10	90	0.00	30.120 
06:45	39.5	35.2	39.5	94	37.9	6	12	90	0.00	30.108 
06:50	39.5	35.9	39.5	94	37.9	5	13	90	0.01	30.108 
06:55	39.3	35.7	39.3	94	37.7	5	11	112	0.00	30.108 
07:00	39.3	34.9	39.3	94	37.7	6	12	90	0.00	30.097 
07:05	39.3	34.3	39.3	94	37.7	7	16	90	0.00	30.097 
07:10	39.3	35.7	39.3	94	37.7	5	13	112	0.01	30.097 
07:15	39.3	35.7	39.3	95	38.0	5	9	112	0.01	30.089 
07:20	39.5	35.2	39.5	95	38.2	6	12	112	0.00	30.089 
07:25	39.6	36.0	39.6	95	38.3	5	10	112	0.01	30.089 
07:30	39.6	35.3	39.6	95	38.3	6	11	112	0.01	30.077 
07:35	39.9	36.4	39.9	95	38.6	5	11	112	0.00	30.077 
07:40	40.1	36.6	40.1	94	38.5	5	11	112	0.00	30.077 
07:45	39.9	36.4	39.9	94	38.3	5	13	112	0.01	30.075 
07:50	39.9	36.4	39.9	94	38.3	5	11	112	0.01	30.075 
07:55	40.1	36.6	40.1	95	38.8	5	11	112	0.01	30.075 
08:00	40.1	36.6	40.1	95	38.8	5	12	112	0.01	30.069 
08:05	40.2	36.0	40.2	95	38.9	6	10	112	0.02	30.069 
08:10	40.2	36.7	40.2	95	38.9	5	12	90	0.01	30.069 
08:15	40.1	35.9	40.1	95	38.8	6	11	112	0.01	30.050 
08:20	40.1	35.9	40.1	95	38.8	6	11	112	0.00	30.050 
08:25	40.1	36.6	40.1	95	38.8	5	12	90	0.01	30.050 
08:30	39.9	36.4	39.9	95	38.6	5	12	112	0.02	30.041 
08:35	40.1	35.3	40.1	96	39.1	7	14	90	0.02	30.041 
08:40	40.1	35.3	40.1	96	39.1	7	14	90	0.01	30.041 
08:45	40.2	36.0	40.2	96	39.2	6	12	112	0.01	30.021 
08:50	40.2	35.4	40.2	96	39.2	7	14	90	0.01	30.021 
08:55	40.3	35.5	40.3	96	39.3	7	13	112	0.01	30.021 
09:00	40.5	35.7	40.5	96	39.5	7	13	112	0.01	30.006 
09:05	40.5	35.2	40.5	96	39.5	8	15	112	0.02	30.006 
09:10	40.5	35.7	40.5	96	39.5	7	14	90	0.01	30.006 
09:15	40.6	35.9	40.6	96	39.5	7	14	112	0.02	29.979 
09:20	40.6	35.3	40.6	96	39.5	8	13	112	0.04	29.979 
09:25	40.8	36.1	40.8	96	39.7	7	13	90	0.03	29.979 
09:30	40.9	36.8	40.9	96	39.8	6	13	112	0.03	29.980 
09:35	41.1	37.8	41.1	96	40.0	5	10	90	0.02	29.980 
09:40	41.1	37.8	41.1	96	40.0	5	11	112	0.02	29.980 
09:45	41.2	41.2	41.2	96	40.1	3	6	112	0.01	29.979 
09:50	41.3	38.8	41.3	96	40.2	4	9	90	0.02	29.979 
09:55	41.8	37.3	41.8	96	40.7	7	15	112	0.01	29.979 
10:00	42.1	37.7	42.1	96	41.0	7	13	90	0.03	29.964 
10:05	42.2	38.4	42.2	96	41.1	6	12	112	0.02	29.964 
10:10	42.2	38.4	42.2	96	41.1	6	12	112	0.01	29.964 
10:15	42.3	37.4	42.3	96	41.2	8	13	112	0.00	29.956 
10:20	42.3	38.5	42.3	96	41.2	6	12	112	0.00	29.956 
10:25	42.3	38.5	42.3	96	41.2	6	12	112	0.01	29.956 
10:30	42.2	37.8	42.2	95	40.9	7	15	112	0.00	29.949 
10:35	42.1	37.7	42.1	95	40.8	7	14	112	0.00	29.949 
10:40	42.1	38.9	42.1	96	41.0	5	11	112	0.01	29.949 
10:45	42.1	38.9	42.1	96	41.0	5	13	112	0.00	29.945 
10:50	42.1	39.7	42.1	96	41.0	4	9	112	0.02	29.945 
10:55	42.1	38.9	42.1	96	41.0	5	13	112	0.01	29.945 
11:00	42.1	38.9	42.1	96	41.0	5	9	112	0.00	29.931 
11:05	42.2	42.2	42.2	96	41.1	3	9	112	0.01	29.931 
11:10	42.2	42.2	42.2	96	41.1	3	7	112	0.01	29.931 
11:15	42.3	40.0	42.3	96	41.2	4	9	90	0.01	29.922 
11:20	42.3	40.0	42.3	97	41.5	4	7	112	0.00	29.922 
11:25	42.3	40.0	42.3	97	41.5	4	7	112	0.00	29.922 
11:30	42.5	42.5	42.5	97	41.7	3	5	112	0.00	29.905 
11:35	42.5	40.2	42.5	97	41.7	4	10	112	0.00	29.905 
11:40	42.5	40.2	42.5	97	41.7	4	6	112	0.01	29.905 
11:45	42.6	42.6	42.6	97	41.8	3	5	112	0.00	29.888 
11:50	42.6	40.3	42.6	97	41.8	4	7	112	0.00	29.888 
11:55	42.8	40.6	42.8	97	42.0	4	7	112	0.00	29.888 
12:00	42.8	42.8	42.8	97	42.0	3	7	90	0.00	29.874 
12:05	42.9	42.9	42.9	97	42.1	3	7	112	0.00	29.874 
12:10	43.1	43.1	43.1	97	42.3	3	6	112	0.00	29.874 
12:15	43.2	43.2	43.2	97	42.4	3	6	90	0.00	29.856 
12:20	43.3	43.3	43.3	97	42.5	3	5	90	0.00	29.856 
12:25	43.5	43.5	43.5	98	43.0	3	6	112	0.00	29.856 
12:30	43.6	43.6	43.6	98	43.1	3	6	112	0.00	29.838 
12:35	43.9	43.9	43.9	98	43.4	2	5	112	0.00	29.838 
12:40	44.2	44.2	44.2	98	43.7	3	6	112	0.00	29.838 
12:45	44.3	44.3	44.3	98	43.8	3	5	112	0.00	29.822 
12:50	44.5	44.5	44.5	98	44.0	3	6	112	0.00	29.822 
12:55	44.8	44.8	44.8	98	44.3	2	4	90	0.00	29.822 
13:00	44.9	44.9	44.9	98	44.4	2	5	112	0.00	29.812 
13:05	45.1	45.1	45.1	98	44.6	2	4	112	0.00	29.812 
13:10	45.2	45.2	45.2	98	44.7	1	3	112	0.00	29.812 
13:15	45.5	45.5	45.5	98	45.0	1	3	112	0.00	29.806 
13:20	45.7	45.7	45.7	98	45.2	1	2	112	0.00	29.806 
13:25	46.0	46.0	46.0	98	45.5	1	3	112	0.00	29.806 
13:30	46.4	46.4	46.4	98	45.9	1	3	90	0.01	29.791 
13:35	46.8	46.8	46.8	98	46.3	2	5	90	0.00	29.791 
13:40	47.6	47.6	47.6	99	47.3	1	3	90	0.00	29.791 
13:45	48.0	48.0	48.0	99	47.7	2	5	112	0.00	29.778 
13:50	48.6	48.6	48.6	99	48.3	1	3	112	0.00	29.778 
13:55	49.2	49.2	49.2	99	48.9	2	5	90	0.00	29.778 
14:00	49.5	49.5	49.5	99	49.2	2	4	112	0.00	29.760 
14:05	49.6	49.6	49.6	99	49.3	1	3	135	0.00	29.760 
14:10	49.8	49.8	49.8	99	49.5	1	4	112	0.00	29.760 
14:15	49.8	49.8	49.8	99	49.5	1	3	90	0.00	29.752 
14:20	49.9	49.9	49.9	99	49.6	1	4	135	0.00	29.752 
14:25	50.1	50.1	50.1	99	49.8	1	4	90	0.00	29.752 
14:30	50.2	50.2	50.2	99	49.9	2	3	112	0.01	29.739 
14:35	50.5	50.5	50.5	99	50.2	2	4	112	0.00	29.739 
14:40	50.7	50.7	50.7	99	50.4	1	3	112	0.00	29.739 
14:45	50.7	50.7	50.7	99	50.4	2	6	135	0.00	29.727 
14:50	50.8	50.8	50.8	99	50.5	2	3	90	0.00	29.727 
14:55	51.0	51.0	51.0	99	50.7	2	5	90	0.00	29.727 
15:00	51.1	51.1	51.1	99	50.8	2	5	135	0.00	29.720 
15:05	51.3	51.3	51.3	99	51.0	2	6	112	0.00	29.720 
15:10	51.3	51.3	51.3	99	51.0	2	5	112	0.00	29.720 
15:15	51.3	51.3	51.3	99	51.0	1	4	112	0.00	29.700 
15:20	51.3	51.3	51.3	99	51.0	2	4	112	0.00	29.700 
15:25	51.4	51.4	51.4	99	51.1	2	5	135	0.00	29.700 
15:30	51.4	51.4	51.4	99	51.1	1	4	135	0.00	29.704 
15:35	51.4	51.4	51.4	99	51.1	2	5	112	0.00	29.704 
15:40	51.6	51.6	51.6	99	51.3	1	3	135	0.00	29.704 
15:45	51.6	51.6	51.6	99	51.3	2	6	112	0.00	29.687 
15:50	51.6	51.6	51.6	99	51.3	2	4	112	0.00	29.687 
15:55	51.7	51.7	51.7	99	51.4	2	6	112	0.00	29.687 
16:00	51.7	51.7	51.7	99	51.4	2	5	135	0.00	29.676 
16:05	51.9	51.9	51.9	99	51.6	2	7	90	0.00	29.676 
16:10	52.0	52.0	52.0	99	51.7	2	8	135	0.00	29.676 
16:15	52.2	52.2	52.2	99	51.9	2	6	90	0.00	29.657 
16:20	52.2	52.2	52.2	99	51.9	2	5	112	0.00	29.657 
16:25	52.2	52.2	52.2	99	51.9	2	5	90	0.00	29.657 
16:30	52.3	52.3	52.3	99	52.0	3	7	90	0.00	29.643 
16:35	52.5	52.5	52.5	99	52.2	2	6	90	0.01	29.643 
16:40	52.5	52.5	52.5	99	52.2	3	6	90	0.02	29.643 
16:45	52.5	52.5	52.5	99	52.2	3	6	112	0.00	29.634 
16:50	52.6	52.6	52.6	99	52.3	3	6	112	0.01	29.634 
16:55	52.8	52.8	52.8	99	52.5	3	7	112	0.01	29.634 
17:00	52.8	52.8	52.8	98	52.2	3	7	90	0.04	29.650 
17:05	52.9	52.9	52.9	98	52.3	5	11	90	0.02	29.650 
17:10	52.9	52.9	52.9	98	52.3	4	10	90	0.01	29.650 
17:15	53.1	53.1	53.1	98	52.5	4	12	112	0.04	29.640 
17:20	53.1	53.1	53.1	98	52.5	2	5	135	0.04	29.640 
17:25	53.2	53.2	53.2	98	52.6	3	7	112	0.02	29.640 
17:30	53.2	53.2	53.2	98	52.6	3	6	112	0.03	29.633 
17:35	53.2	53.2	53.2	98	52.6	2	7	90	0.03	29.633 
17:40	53.2	53.2	53.2	98	52.6	2	4	90	0.02	29.633 
17:45	53.3	53.3	53.3	98	52.7	2	6	90	0.02	29.631 
17:50	53.3	53.3	53.3	98	52.7	1	3	112	0.00	29.631 
17:55	53.3	53.3	53.3	98	52.7	1	3	112	0.01	29.631 
18:00	53.3	53.3	53.3	98	52.7	1	4	45	0.00	29.623 
18:05	53.3	53.3	53.3	98	52.7	0	2	135	0.00	29.623 
18:10	53.3	53.3	53.3	98	52.7	1	3	270	0.02	29.623 
18:15	53.3	53.3	53.3	98	52.7	1	5	270	0.01	29.634 
18:20	53.5	53.5	53.5	98	52.9	0	2	270	0.01	29.634 
18:25	53.5	53.5	53.5	98	52.9	1	3	248	0.00	29.634 
18:30	53.3	53.3	53.3	98	52.7	1	5	112	0.00	29.613 
18:35	53.3	53.3	53.3	98	52.7	1	3	248	0.01	29.613 
18:40	53.5	53.5	53.5	98	52.9	1	6	248	0.00	29.613 
18:45	53.5	53.5	53.5	98	52.9	1	2	248	0.00	29.605 
18:50	53.5	53.5	53.5	98	52.9	2	5	248	0.00	29.605 
18:55	53.5	53.5	53.5	98	52.9	2	7	248	0.00	29.605 
19:00	53.3	53.3	53.3	98	52.7	1	4	292	0.00	29.604 
19:05	53.3	53.3	53.3	98	52.7	1	4	22	0.00	29.604 
19:10	53.2	53.2	53.2	98	52.6	1	2	248	0.00	29.604 
19:15	53.2	53.2	53.2	98	52.6	1	4	248	0.00	29.608 
19:20	53.2	53.2	53.2	98	52.6	1	3	248	0.00	29.608 
19:25	53.2	53.2	53.2	98	52.6	2	6	248	0.00	29.608 
19:30	53.1	53.1	53.1	98	52.5	1	4	248	0.00	29.611 
19:35	52.9	52.9	52.9	98	52.3	1	4	248	0.00	29.611 
19:40	52.9	52.9	52.9	98	52.3	2	6	248	0.00	29.611 
19:45	52.9	52.9	52.9	98	52.3	2	9	248	0.00	29.614 
19:50	52.8	52.8	52.8	97	52.0	2	5	225	0.00	29.614 
19:55	52.6	52.6	52.6	97	51.8	2	5	248	0.00	29.614 
20:00	52.6	52.6	52.6	97	51.8	2	6	225	0.00	29.613 
20:05	52.3	52.3	52.3	97	51.5	1	4	248	0.00	29.613 
20:10	52.2	52.2	52.2	96	51.1	2	5	248	0.00	29.613 
20:15	52.2	52.2	52.2	96	51.1	3	6	248	0.00	29.618 
20:20	52.0	52.0	52.0	96	50.9	2	5	248	0.00	29.618 
20:25	52.0	52.0	52.0	96	50.9	3	9	248	0.00	29.618 
20:30	52.2	52.2	52.2	95	50.8	3	6	248	0.00	29.625 
20:35	52.2	52.2	52.2	94	50.5	3	9	248	0.00	29.625 
20:40	52.0	52.0	52.0	92	49.7	3	9	248	0.00	29.625 
20:45	52.0	52.0	52.0	91	49.5	3	9	248	0.00	29.627 
20:50	51.9	51.9	51.9	90	49.1	2	10	248	0.00	29.627 
20:55	51.6	51.6	51.6	90	48.8	2	7	248	0.00	29.627 
21:00	51.6	51.6	51.6	88	48.2	3	10	248	0.00	29.629 
21:05	51.7	51.7	51.7	85	47.3	5	12	248	0.00	29.629 
21:10	51.6	51.6	51.6	84	46.9	3	7	248	0.00	29.629 
21:15	51.4	51.4	51.4	84	46.7	2	5	248	0.00	29.626 
21:20	51.3	51.3	51.3	84	46.6	3	6	248	0.00	29.626 
21:25	51.0	51.0	51.0	84	46.3	2	5	248	0.00	29.626 
21:30	51.0	51.0	51.0	84	46.3	3	6	248	0.00	29.628 
21:35	51.0	51.0	51.0	85	46.7	3	10	270	0.00	29.628 
21:40	51.0	51.0	51.0	85	46.7	3	7	248	0.00	29.628 
21:45	51.0	51.0	51.0	85	46.7	3	11	248	0.00	29.625 
21:50	51.0	51.0	51.0	86	47.0	3	8	225	0.00	29.625 
21:55	50.8	50.8	50.8	86	46.8	3	9	248	0.00	29.625 
22:00	51.0	51.0	51.0	84	46.3	4	12	248	0.00	29.628 
22:05	51.3	51.3	51.3	82	46.0	5	11	270	0.00	29.628 
22:10	51.3	51.3	51.3	79	45.0	7	22	248	0.00	29.628 
22:15	50.7	50.7	50.7	79	44.4	9	22	270	0.01	29.640 
22:20	49.8	46.1	49.8	82	44.5	9	20	248	0.00	29.640 
22:25	48.9	45.9	48.9	82	43.6	7	22	270	0.01	29.640 
22:30	48.5	45.4	48.5	81	42.9	7	17	270	0.00	29.649 
22:35	48.2	46.1	48.2	81	42.6	5	13	270	0.00	29.649 
22:40	47.9	45.8	47.9	83	43.0	5	12	270	0.00	29.649 
22:45	47.4	45.9	47.4	83	42.5	4	12	248	0.00	29.666 
22:50	47.3	43.9	47.3	82	42.1	7	17	248	0.00	29.666 
22:55	47.3	43.1	47.3	79	41.1	9	20	248	0.00	29.666 
23:00	47.0	44.7	47.0	80	41.2	5	14	270	0.00	29.673 
23:05	46.8	42.9	46.8	80	41.0	8	20	270	0.00	29.673 
23:10	46.5	44.1	46.5	82	41.3	5	12	270	0.00	29.673 
23:15	46.2	44.5	46.2	83	41.3	4	12	248	0.00	29.671 
23:20	46.0	46.0	46.0	85	41.7	3	6	248	0.00	29.671 
23:25	45.8	45.8	45.8	85	41.6	2	9	248	0.00	29.671 
23:30	45.7	45.7	45.7	85	41.5	3	6	248	0.00	29.660 
23:35	45.5	45.5	45.5	85	41.3	3	7	248	0.00	29.660 
23:40	45.5	43.7	45.5	85	41.3	4	11	248	0.00	29.660 
23:45	45.5	45.5	45.5	85	41.3	3	9	248	0.00	29.660 
23:50	45.4	45.4	45.4	85	41.2	2	6	248	0.00	29.660 
23:55	45.4	45.4	45.4	85	41.2	3	7	248	0.00	29.660 

CoCoRaHS
IN-AL-39
A2 Web Hosting
Creative Commons License
GoDaddy
Look for:

loaded 2017-10-16 18:06:23 • last modified 2010-11-18 10:43:29
Privacy PolicyDisclaimer
• wx.awcolley.com is powered by PmWiki v.2002016 •
• all content (unless otherwise noted) © 2017 A W Colley